sensor_id;sensor_type;location;lat;lon;timestamp;pressure;altitude;pressure_sealevel;temperature;humidity
13241;BME280;6687;47.790;7.322;2023-07-20T05:25:10;98905.34;;;22.99;51.06
13241;BME280;6687;47.790;7.322;2023-07-20T05:27:38;98908.66;;;23.04;51.66
13241;BME280;6687;47.790;7.322;2023-07-20T05:30:06;98900.41;;;23.28;50.48
13241;BME280;6687;47.790;7.322;2023-07-20T05:32:33;98909.13;;;23.30;50.72
13241;BME280;6687;47.790;7.322;2023-07-20T05:35:00;98909.88;;;23.49;49.31
13241;BME280;6687;47.790;7.322;2023-07-20T05:37:26;98915.72;;;23.56;49.13
13241;BME280;6687;47.790;7.322;2023-07-20T05:39:53;98909.94;;;23.65;48.69
13241;BME280;6687;47.790;7.322;2023-07-20T05:42:21;98915.47;;;23.78;47.79
13241;BME280;6687;47.790;7.322;2023-07-20T05:44:48;98908.06;;;23.67;46.53
13241;BME280;6687;47.790;7.322;2023-07-20T05:47:15;98907.97;;;23.86;46.54
13241;BME280;6687;47.790;7.322;2023-07-20T05:49:41;98910.63;;;23.69;46.33
13241;BME280;6687;47.790;7.322;2023-07-20T05:52:08;98903.75;;;23.99;46.26
13241;BME280;6687;47.790;7.322;2023-07-20T05:54:35;98909.53;;;23.73;46.03
13241;BME280;6687;47.790;7.322;2023-07-20T05:57:02;98907.72;;;23.91;45.67
13241;BME280;6687;47.790;7.322;2023-07-20T05:59:30;98907.50;;;24.27;45.66
13241;BME280;6687;47.790;7.322;2023-07-20T06:01:57;98904.78;;;24.29;44.74
13241;BME280;6687;47.790;7.322;2023-07-20T06:04:23;98904.34;;;24.36;44.46
13241;BME280;6687;47.790;7.322;2023-07-20T06:06:50;98914.22;;;24.50;44.60
13241;BME280;6687;47.790;7.322;2023-07-20T06:09:17;98902.75;;;24.50;42.79
13241;BME280;6687;47.790;7.322;2023-07-20T06:11:44;98906.97;;;24.54;41.53
13241;BME280;6687;47.790;7.322;2023-07-20T06:14:11;98906.75;;;24.73;40.55
13241;BME280;6687;47.790;7.322;2023-07-20T06:16:39;98902.09;;;24.92;41.08
13241;BME280;6687;47.790;7.322;2023-07-20T06:19:06;98901.28;;;25.06;40.53
13241;BME280;6687;47.790;7.322;2023-07-20T06:21:32;98909.28;;;25.20;40.68
13241;BME280;6687;47.790;7.322;2023-07-20T06:24:00;98902.38;;;25.48;40.32
13241;BME280;6687;47.790;7.322;2023-07-20T06:26:26;98903.59;;;25.43;39.54
13241;BME280;6687;47.790;7.322;2023-07-20T06:28:54;98899.91;;;25.59;40.40
13241;BME280;6687;47.790;7.322;2023-07-20T06:31:20;98903.44;;;25.74;39.83
13241;BME280;6687;47.790;7.322;2023-07-20T06:33:48;98902.81;;;25.99;40.12
13241;BME280;6687;47.790;7.322;2023-07-20T06:36:17;98898.16;;;26.03;39.91
13241;BME280;6687;47.790;7.322;2023-07-20T06:38:44;98904.78;;;26.25;39.46
13241;BME280;6687;47.790;7.322;2023-07-20T06:41:11;98907.88;;;26.31;39.89
13241;BME280;6687;47.790;7.322;2023-07-20T06:43:38;98896.06;;;26.50;39.44
13241;BME280;6687;47.790;7.322;2023-07-20T06:46:04;98895.50;;;26.59;38.61
13241;BME280;6687;47.790;7.322;2023-07-20T06:48:31;98896.06;;;26.50;37.81
13241;BME280;6687;47.790;7.322;2023-07-20T06:51:00;98899.19;;;26.84;38.29
13241;BME280;6687;47.790;7.322;2023-07-20T06:53:27;98900.75;;;27.01;37.74
13241;BME280;6687;47.790;7.322;2023-07-20T06:55:53;98896.19;;;27.15;37.92
13241;BME280;6687;47.790;7.322;2023-07-20T06:58:22;98907.91;;;26.86;36.73
13241;BME280;6687;47.790;7.322;2023-07-20T07:00:48;98911.16;;;27.04;37.79
13241;BME280;6687;47.790;7.322;2023-07-20T07:03:15;98904.44;;;27.25;36.09
13241;BME280;6687;47.790;7.322;2023-07-20T07:05:43;98907.34;;;27.48;37.53
13241;BME280;6687;47.790;7.322;2023-07-20T07:08:11;98903.63;;;27.76;37.52
13241;BME280;6687;47.790;7.322;2023-07-20T07:10:38;98902.75;;;27.63;37.09
13241;BME280;6687;47.790;7.322;2023-07-20T07:13:05;98911.91;;;27.84;35.54
13241;BME280;6687;47.790;7.322;2023-07-20T07:15:31;98915.66;;;27.94;37.08
13241;BME280;6687;47.790;7.322;2023-07-20T07:17:58;98911.47;;;28.16;36.76
13241;BME280;6687;47.790;7.322;2023-07-20T07:20:25;98912.88;;;28.09;35.51
13241;BME280;6687;47.790;7.322;2023-07-20T07:22:53;98918.09;;;28.23;35.98
13241;BME280;6687;47.790;7.322;2023-07-20T07:25:22;98910.88;;;28.36;35.86
13241;BME280;6687;47.790;7.322;2023-07-20T07:27:49;98909.75;;;28.28;36.29
13241;BME280;6687;47.790;7.322;2023-07-20T07:30:16;98910.78;;;28.38;36.20
13241;BME280;6687;47.790;7.322;2023-07-20T07:32:42;98908.09;;;28.51;36.01
13241;BME280;6687;47.790;7.322;2023-07-20T07:35:09;98907.31;;;28.49;35.72
13241;BME280;6687;47.790;7.322;2023-07-20T07:37:37;98912.47;;;28.52;35.96
13241;BME280;6687;47.790;7.322;2023-07-20T07:40:04;98911.81;;;28.48;35.80
13241;BME280;6687;47.790;7.322;2023-07-20T07:42:34;98913.50;;;28.62;35.82
13241;BME280;6687;47.790;7.322;2023-07-20T07:45:01;98912.59;;;28.74;35.51
13241;BME280;6687;47.790;7.322;2023-07-20T07:47:28;98904.56;;;28.63;34.77
13241;BME280;6687;47.790;7.322;2023-07-20T07:49:55;98904.94;;;28.70;34.85
13241;BME280;6687;47.790;7.322;2023-07-20T07:52:22;98905.13;;;28.80;34.12
13241;BME280;6687;47.790;7.322;2023-07-20T07:54:49;98905.31;;;28.76;35.37
13241;BME280;6687;47.790;7.322;2023-07-20T07:57:16;98910.84;;;28.86;34.78
13241;BME280;6687;47.790;7.322;2023-07-20T07:59:44;98904.09;;;29.05;33.87
13241;BME280;6687;47.790;7.322;2023-07-20T08:02:10;98900.41;;;29.19;33.12
13241;BME280;6687;47.790;7.322;2023-07-20T08:04:37;98906.00;;;29.15;32.04
13241;BME280;6687;47.790;7.322;2023-07-20T08:07:05;98900.72;;;29.38;31.87
13241;BME280;6687;47.790;7.322;2023-07-20T08:09:31;98896.38;;;29.48;32.08
13241;BME280;6687;47.790;7.322;2023-07-20T08:11:58;98897.06;;;29.74;30.78
13241;BME280;6687;47.790;7.322;2023-07-20T08:14:25;98890.81;;;29.51;33.47
13241;BME280;6687;47.790;7.322;2023-07-20T08:16:53;98892.91;;;29.82;32.93
13241;BME280;6687;47.790;7.322;2023-07-20T08:19:20;98888.41;;;29.82;33.57
13241;BME280;6687;47.790;7.322;2023-07-20T08:21:47;98890.13;;;30.06;32.73
13241;BME280;6687;47.790;7.322;2023-07-20T08:24:14;98893.28;;;30.00;32.70
13241;BME280;6687;47.790;7.322;2023-07-20T08:26:40;98892.56;;;30.20;32.49
13241;BME280;6687;47.790;7.322;2023-07-20T08:29:07;98894.97;;;30.23;32.56
13241;BME280;6687;47.790;7.322;2023-07-20T08:31:34;98894.72;;;30.26;32.49
13241;BME280;6687;47.790;7.322;2023-07-20T08:34:02;98888.03;;;30.43;32.61
13241;BME280;6687;47.790;7.322;2023-07-20T08:36:28;98890.00;;;30.73;30.11
13241;BME280;6687;47.790;7.322;2023-07-20T08:38:56;98883.69;;;30.75;31.78
13241;BME280;6687;47.790;7.322;2023-07-20T08:41:23;98883.84;;;30.62;31.70
13241;BME280;6687;47.790;7.322;2023-07-20T08:43:51;98878.53;;;30.94;31.36
13241;BME280;6687;47.790;7.322;2023-07-20T08:46:22;98883.03;;;31.15;30.88
13241;BME280;6687;47.790;7.322;2023-07-20T08:48:50;98877.16;;;31.21;31.01
13241;BME280;6687;47.790;7.322;2023-07-20T08:51:19;98877.53;;;31.37;28.86
13241;BME280;6687;47.790;7.322;2023-07-20T08:53:47;98888.53;;;31.55;30.17
13241;BME280;6687;47.790;7.322;2023-07-20T08:56:18;98877.81;;;31.34;30.65
13241;BME280;6687;47.790;7.322;2023-07-20T08:58:46;98883.63;;;31.60;30.40
13241;BME280;6687;47.790;7.322;2023-07-20T09:01:14;98883.34;;;31.63;29.02
13241;BME280;6687;47.790;7.322;2023-07-20T09:03:41;98879.00;;;31.62;30.19
13241;BME280;6687;47.790;7.322;2023-07-20T09:06:10;98875.31;;;31.54;27.37
13241;BME280;6687;47.790;7.322;2023-07-20T09:08:39;98866.44;;;31.63;28.83
13241;BME280;6687;47.790;7.322;2023-07-20T09:11:06;98874.88;;;31.58;27.60
13241;BME280;6687;47.790;7.322;2023-07-20T09:13:33;98860.50;;;31.59;28.07
13241;BME280;6687;47.790;7.322;2023-07-20T09:16:00;98864.81;;;31.81;27.85
13241;BME280;6687;47.790;7.322;2023-07-20T09:18:29;98866.44;;;32.34;27.45
13241;BME280;6687;47.790;7.322;2023-07-20T09:20:58;98855.97;;;32.21;28.99
13241;BME280;6687;47.790;7.322;2023-07-20T09:23:30;98852.16;;;32.24;28.67
13241;BME280;6687;47.790;7.322;2023-07-20T09:25:59;98854.91;;;32.53;26.78
13241;BME280;6687;47.790;7.322;2023-07-20T09:28:26;98846.66;;;32.16;26.00
13241;BME280;6687;47.790;7.322;2023-07-20T09:30:54;98837.78;;;32.35;28.47
13241;BME280;6687;47.790;7.322;2023-07-20T09:33:22;98838.63;;;32.45;28.57
13241;BME280;6687;47.790;7.322;2023-07-20T09:35:49;98835.88;;;32.85;27.63
13241;BME280;6687;47.790;7.322;2023-07-20T09:38:17;98834.00;;;32.86;26.72
13241;BME280;6687;47.790;7.322;2023-07-20T09:40:43;98830.88;;;33.00;27.82
13241;BME280;6687;47.790;7.322;2023-07-20T09:43:12;98833.97;;;32.47;25.63
13241;BME280;6687;47.790;7.322;2023-07-20T09:45:42;98833.88;;;32.97;26.47
13241;BME280;6687;47.790;7.322;2023-07-20T09:48:10;98837.38;;;33.07;27.41
13241;BME280;6687;47.790;7.322;2023-07-20T09:50:40;98824.94;;;33.06;27.11
13241;BME280;6687;47.790;7.322;2023-07-20T09:53:11;98828.31;;;33.28;27.48
13241;BME280;6687;47.790;7.322;2023-07-20T09:55:40;98821.28;;;33.27;27.62
13241;BME280;6687;47.790;7.322;2023-07-20T09:58:08;98819.03;;;33.13;27.61
13241;BME280;6687;47.790;7.322;2023-07-20T10:00:38;98819.00;;;33.22;27.91
13241;BME280;6687;47.790;7.322;2023-07-20T10:03:05;98806.19;;;33.54;25.77
13241;BME280;6687;47.790;7.322;2023-07-20T10:05:34;98800.53;;;33.57;26.40
13241;BME280;6687;47.790;7.322;2023-07-20T10:08:03;98795.47;;;33.81;24.29
13241;BME280;6687;47.790;7.322;2023-07-20T10:10:33;98803.19;;;33.94;23.42
13241;BME280;6687;47.790;7.322;2023-07-20T10:13:01;98791.44;;;33.58;24.26
13241;BME280;6687;47.790;7.322;2023-07-20T10:15:30;98797.91;;;34.48;23.27
13241;BME280;6687;47.790;7.322;2023-07-20T10:18:06;98795.13;;;34.76;23.88
13241;BME280;6687;47.790;7.322;2023-07-20T10:20:36;98788.25;;;34.63;23.48
13241;BME280;6687;47.790;7.322;2023-07-20T10:23:06;98788.66;;;34.51;23.10
13241;BME280;6687;47.790;7.322;2023-07-20T10:25:34;98798.53;;;35.22;23.85
13241;BME280;6687;47.790;7.322;2023-07-20T10:28:05;98793.47;;;34.11;23.50
13241;BME280;6687;47.790;7.322;2023-07-20T10:30:33;98780.97;;;34.20;23.93
13241;BME280;6687;47.790;7.322;2023-07-20T10:33:02;98779.34;;;34.81;23.05
13241;BME280;6687;47.790;7.322;2023-07-20T10:35:50;98782.69;;;35.19;24.12
13241;BME280;6687;47.790;7.322;2023-07-20T10:38:18;98781.34;;;35.57;24.25
13241;BME280;6687;47.790;7.322;2023-07-20T10:40:54;98782.94;;;34.90;23.23
13241;BME280;6687;47.790;7.322;2023-07-20T10:43:21;98771.28;;;35.33;22.45
13241;BME280;6687;47.790;7.322;2023-07-20T10:45:49;98769.53;;;35.93;22.84
13241;BME280;6687;47.790;7.322;2023-07-20T10:48:19;98760.47;;;35.94;23.63
13241;BME280;6687;47.790;7.322;2023-07-20T10:51:08;98756.28;;;35.65;21.63
13241;BME280;6687;47.790;7.322;2023-07-20T10:53:36;98754.91;;;35.61;21.39
13241;BME280;6687;47.790;7.322;2023-07-20T10:56:08;98752.44;;;36.18;23.80
13241;BME280;6687;47.790;7.322;2023-07-20T10:58:36;98756.81;;;36.11;21.45
13241;BME280;6687;47.790;7.322;2023-07-20T11:01:04;98741.19;;;35.72;21.56
13241;BME280;6687;47.790;7.322;2023-07-20T11:03:34;98746.22;;;36.51;21.57
13241;BME280;6687;47.790;7.322;2023-07-20T11:06:33;98743.66;;;36.98;21.31
13241;BME280;6687;47.790;7.322;2023-07-20T11:09:05;98734.53;;;37.08;20.04
13241;BME280;6687;47.790;7.322;2023-07-20T11:11:34;98742.81;;;37.14;20.92
13241;BME280;6687;47.790;7.322;2023-07-20T11:14:04;98739.19;;;37.38;20.64
13241;BME280;6687;47.790;7.322;2023-07-20T11:16:35;98735.34;;;37.25;20.00
13241;BME280;6687;47.790;7.322;2023-07-20T11:19:03;98729.81;;;37.66;22.37
13241;BME280;6687;47.790;7.322;2023-07-20T11:21:37;98735.13;;;37.82;22.16
13241;BME280;6687;47.790;7.322;2023-07-20T11:24:05;98734.28;;;37.81;21.38
13241;BME280;6687;47.790;7.322;2023-07-20T11:26:43;98723.31;;;38.14;21.66
13241;BME280;6687;47.790;7.322;2023-07-20T11:29:11;98713.63;;;37.89;22.50
13241;BME280;6687;47.790;7.322;2023-07-20T11:31:39;98723.66;;;38.11;21.12
13241;BME280;6687;47.790;7.322;2023-07-20T11:34:09;98718.13;;;37.73;19.01
13241;BME280;6687;47.790;7.322;2023-07-20T11:36:39;98722.41;;;36.95;19.02
13241;BME280;6687;47.790;7.322;2023-07-20T11:39:09;98711.06;;;37.64;18.31
13241;BME280;6687;47.790;7.322;2023-07-20T11:41:36;98704.13;;;37.22;18.28
13241;BME280;6687;47.790;7.322;2023-07-20T11:44:06;98706.06;;;37.45;18.93
13241;BME280;6687;47.790;7.322;2023-07-20T11:46:33;98703.56;;;37.74;21.43
13241;BME280;6687;47.790;7.322;2023-07-20T11:49:01;98706.19;;;38.37;21.44
13241;BME280;6687;47.790;7.322;2023-07-20T11:51:29;98697.00;;;38.84;21.21
13241;BME280;6687;47.790;7.322;2023-07-20T11:53:58;98705.16;;;38.99;20.38
13241;BME280;6687;47.790;7.322;2023-07-20T11:56:26;98700.31;;;38.33;17.86
13241;BME280;6687;47.790;7.322;2023-07-20T11:58:58;98697.25;;;38.13;18.45
13241;BME280;6687;47.790;7.322;2023-07-20T12:01:27;98692.50;;;37.61;18.22
13241;BME280;6687;47.790;7.322;2023-07-20T12:03:57;98684.63;;;38.44;18.23
13241;BME280;6687;47.790;7.322;2023-07-20T12:06:25;98687.06;;;38.91;18.28
13241;BME280;6687;47.790;7.322;2023-07-20T12:08:55;98682.13;;;38.95;16.89
13241;BME280;6687;47.790;7.322;2023-07-20T12:11:35;98679.78;;;39.51;19.30
13241;BME280;6687;47.790;7.322;2023-07-20T12:14:04;98680.91;;;39.57;16.80
13241;BME280;6687;47.790;7.322;2023-07-20T12:16:32;98673.25;;;38.86;20.78
13241;BME280;6687;47.790;7.322;2023-07-20T12:19:01;98665.97;;;39.02;19.73
13241;BME280;6687;47.790;7.322;2023-07-20T12:21:30;98668.19;;;38.68;20.79
13241;BME280;6687;47.790;7.322;2023-07-20T12:23:59;98662.22;;;38.73;19.67
13241;BME280;6687;47.790;7.322;2023-07-20T12:26:29;98661.91;;;38.68;20.94
13241;BME280;6687;47.790;7.322;2023-07-20T12:28:58;98664.22;;;37.95;21.46
13241;BME280;6687;47.790;7.322;2023-07-20T12:31:27;98660.59;;;38.03;21.74
13241;BME280;6687;47.790;7.322;2023-07-20T12:33:56;98652.22;;;37.66;22.42
13241;BME280;6687;47.790;7.322;2023-07-20T12:36:24;98667.72;;;37.72;21.92
13241;BME280;6687;47.790;7.322;2023-07-20T12:38:51;98654.19;;;37.80;20.13
13241;BME280;6687;47.790;7.322;2023-07-20T12:41:18;98651.25;;;38.13;20.81
13241;BME280;6687;47.790;7.322;2023-07-20T12:43:45;98644.94;;;38.36;18.66
13241;BME280;6687;47.790;7.322;2023-07-20T12:46:13;98637.38;;;38.31;18.72
13241;BME280;6687;47.790;7.322;2023-07-20T12:48:40;98638.69;;;37.66;18.98
13241;BME280;6687;47.790;7.322;2023-07-20T12:51:07;98636.44;;;38.01;18.61
13241;BME280;6687;47.790;7.322;2023-07-20T12:53:34;98631.72;;;38.41;21.10
13241;BME280;6687;47.790;7.322;2023-07-20T12:56:01;98633.53;;;38.26;21.20
13241;BME280;6687;47.790;7.322;2023-07-20T12:58:28;98631.00;;;37.78;21.37
13241;BME280;6687;47.790;7.322;2023-07-20T13:00:55;98618.69;;;37.75;18.37
13241;BME280;6687;47.790;7.322;2023-07-20T13:03:23;98622.63;;;38.34;20.24
13241;BME280;6687;47.790;7.322;2023-07-20T13:05:50;98618.16;;;38.03;19.86
13241;BME280;6687;47.790;7.322;2023-07-20T13:08:16;98613.22;;;38.45;20.30
13241;BME280;6687;47.790;7.322;2023-07-20T13:10:45;98606.84;;;38.61;18.98
13241;BME280;6687;47.790;7.322;2023-07-20T13:13:11;98614.88;;;38.31;20.60
13241;BME280;6687;47.790;7.322;2023-07-20T13:15:42;98606.53;;;38.85;18.68
13241;BME280;6687;47.790;7.322;2023-07-20T13:18:10;98610.66;;;39.26;19.65
13241;BME280;6687;47.790;7.322;2023-07-20T13:20:38;98606.06;;;38.82;16.53
13241;BME280;6687;47.790;7.322;2023-07-20T13:23:04;98606.69;;;39.28;18.46
13241;BME280;6687;47.790;7.322;2023-07-20T13:25:31;98604.31;;;38.74;20.80
13241;BME280;6687;47.790;7.322;2023-07-20T13:27:58;98601.22;;;38.77;20.78
13241;BME280;6687;47.790;7.322;2023-07-20T13:30:25;98598.44;;;38.70;20.43
13241;BME280;6687;47.790;7.322;2023-07-20T13:32:51;98600.38;;;38.91;20.45
13241;BME280;6687;47.790;7.322;2023-07-20T13:35:18;98594.25;;;38.30;20.32
13241;BME280;6687;47.790;7.322;2023-07-20T13:37:46;98592.63;;;38.88;16.92
13241;BME280;6687;47.790;7.322;2023-07-20T13:40:15;98590.78;;;38.74;18.57
13241;BME280;6687;47.790;7.322;2023-07-20T13:42:44;98589.03;;;38.28;18.62
13241;BME280;6687;47.790;7.322;2023-07-20T13:45:10;98581.34;;;38.17;18.99
13241;BME280;6687;47.790;7.322;2023-07-20T13:47:37;98586.59;;;38.33;18.33
13241;BME280;6687;47.790;7.322;2023-07-20T13:50:04;98590.19;;;37.88;18.25
13241;BME280;6687;47.790;7.322;2023-07-20T13:52:31;98583.41;;;37.92;18.95
13241;BME280;6687;47.790;7.322;2023-07-20T13:54:59;98581.34;;;38.17;18.70
13241;BME280;6687;47.790;7.322;2023-07-20T13:57:26;98572.81;;;38.88;19.64
13241;BME280;6687;47.790;7.322;2023-07-20T13:59:52;98575.59;;;39.24;17.86
13241;BME280;6687;47.790;7.322;2023-07-20T14:02:19;98575.75;;;39.59;18.80
13241;BME280;6687;47.790;7.322;2023-07-20T14:04:46;98569.06;;;38.89;18.00
13241;BME280;6687;47.790;7.322;2023-07-20T14:07:13;98574.06;;;39.22;17.66
13241;BME280;6687;47.790;7.322;2023-07-20T14:09:40;98566.38;;;39.83;16.85
13241;BME280;6687;47.790;7.322;2023-07-20T14:12:09;98571.78;;;39.40;16.48
13241;BME280;6687;47.790;7.322;2023-07-20T14:14:37;98573.63;;;40.47;15.79
13241;BME280;6687;47.790;7.322;2023-07-20T14:17:04;98568.88;;;40.28;18.84
13241;BME280;6687;47.790;7.322;2023-07-20T14:19:31;98564.06;;;40.58;16.71
13241;BME280;6687;47.790;7.322;2023-07-20T14:21:58;98558.59;;;39.95;17.57
13241;BME280;6687;47.790;7.322;2023-07-20T14:24:25;98556.91;;;40.50;17.32
13241;BME280;6687;47.790;7.322;2023-07-20T14:26:52;98562.84;;;40.04;15.94
13241;BME280;6687;47.790;7.322;2023-07-20T14:29:21;98556.63;;;40.10;15.72
13241;BME280;6687;47.790;7.322;2023-07-20T14:31:48;98546.28;;;40.55;17.93
13241;BME280;6687;47.790;7.322;2023-07-20T14:34:16;98544.16;;;40.79;16.25
13241;BME280;6687;47.790;7.322;2023-07-20T14:36:44;98530.72;;;40.71;16.48
13241;BME280;6687;47.790;7.322;2023-07-20T14:39:11;98539.44;;;40.03;17.44
13241;BME280;6687;47.790;7.322;2023-07-20T14:41:37;98526.53;;;40.05;16.27
13241;BME280;6687;47.790;7.322;2023-07-20T14:44:04;98531.03;;;40.96;15.52
13241;BME280;6687;47.790;7.322;2023-07-20T14:46:32;98536.00;;;41.54;15.20
13241;BME280;6687;47.790;7.322;2023-07-20T14:48:59;98529.19;;;41.10;15.20
13241;BME280;6687;47.790;7.322;2023-07-20T14:51:27;98523.03;;;41.56;14.73
13241;BME280;6687;47.790;7.322;2023-07-20T14:53:57;98524.94;;;41.76;15.02
13241;BME280;6687;47.790;7.322;2023-07-20T14:56:23;98526.66;;;42.03;14.39
13241;BME280;6687;47.790;7.322;2023-07-20T14:58:50;98521.84;;;40.55;15.18
13241;BME280;6687;47.790;7.322;2023-07-20T15:01:17;98515.88;;;41.28;15.17
13241;BME280;6687;47.790;7.322;2023-07-20T15:03:45;98523.69;;;40.83;15.52
13241;BME280;6687;47.790;7.322;2023-07-20T15:06:12;98516.00;;;40.59;15.85
13241;BME280;6687;47.790;7.322;2023-07-20T15:08:39;98513.63;;;40.77;16.42
13241;BME280;6687;47.790;7.322;2023-07-20T15:11:05;98515.47;;;41.31;15.28
13241;BME280;6687;47.790;7.322;2023-07-20T15:13:32;98506.94;;;41.88;14.80
13241;BME280;6687;47.790;7.322;2023-07-20T15:15:59;98508.22;;;41.79;14.60
13241;BME280;6687;47.790;7.322;2023-07-20T15:18:25;98511.44;;;40.59;15.92
13241;BME280;6687;47.790;7.322;2023-07-20T15:20:54;98497.91;;;41.27;16.32
13241;BME280;6687;47.790;7.322;2023-07-20T15:23:20;98493.72;;;40.35;15.68
13241;BME280;6687;47.790;7.322;2023-07-20T15:25:46;98504.88;;;39.62;16.91
13241;BME280;6687;47.790;7.322;2023-07-20T15:28:13;98493.34;;;40.38;15.68
13241;BME280;6687;47.790;7.322;2023-07-20T15:30:39;98496.19;;;39.30;17.10
13241;BME280;6687;47.790;7.322;2023-07-20T15:33:06;98493.81;;;40.48;16.24
13241;BME280;6687;47.790;7.322;2023-07-20T15:35:33;98490.25;;;39.63;16.51
13241;BME280;6687;47.790;7.322;2023-07-20T15:38:01;98484.44;;;40.23;15.51
13241;BME280;6687;47.790;7.322;2023-07-20T15:40:28;98488.03;;;39.95;15.78
13241;BME280;6687;47.790;7.322;2023-07-20T15:42:55;98482.03;;;40.34;15.94
13241;BME280;6687;47.790;7.322;2023-07-20T15:45:21;98480.91;;;40.29;16.75
13241;BME280;6687;47.790;7.322;2023-07-20T15:47:49;98480.19;;;40.83;15.62
13241;BME280;6687;47.790;7.322;2023-07-20T15:50:16;98479.44;;;41.16;17.13
13241;BME280;6687;47.790;7.322;2023-07-20T15:52:43;98479.50;;;40.33;15.59
13241;BME280;6687;47.790;7.322;2023-07-20T15:55:11;98472.16;;;40.68;15.59
13241;BME280;6687;47.790;7.322;2023-07-20T15:57:38;98475.22;;;40.17;16.06
13241;BME280;6687;47.790;7.322;2023-07-20T16:00:06;98480.81;;;41.67;15.97
13241;BME280;6687;47.790;7.322;2023-07-20T16:02:35;98474.00;;;41.16;15.68
13241;BME280;6687;47.790;7.322;2023-07-20T16:05:02;98472.38;;;41.42;16.89
13241;BME280;6687;47.790;7.322;2023-07-20T16:07:29;98472.16;;;41.50;16.89
13241;BME280;6687;47.790;7.322;2023-07-20T16:09:57;98468.41;;;41.31;15.66
13241;BME280;6687;47.790;7.322;2023-07-20T16:12:27;98465.91;;;41.43;15.36
13241;BME280;6687;47.790;7.322;2023-07-20T16:14:56;98470.16;;;40.42;16.32
13241;BME280;6687;47.790;7.322;2023-07-20T16:17:23;98469.03;;;40.30;16.36
13241;BME280;6687;47.790;7.322;2023-07-20T16:19:50;98472.06;;;38.63;17.91
13241;BME280;6687;47.790;7.322;2023-07-20T16:22:16;98462.19;;;40.34;17.49
13241;BME280;6687;47.790;7.322;2023-07-20T16:24:43;98461.31;;;39.92;18.53
13241;BME280;6687;47.790;7.322;2023-07-20T16:27:10;98462.34;;;40.26;16.97
13241;BME280;6687;47.790;7.322;2023-07-20T16:29:38;98462.53;;;38.67;19.06
13241;BME280;6687;47.790;7.322;2023-07-20T16:32:05;98456.56;;;37.97;19.02
13241;BME280;6687;47.790;7.322;2023-07-20T16:34:32;98455.03;;;39.20;18.28
13241;BME280;6687;47.790;7.322;2023-07-20T16:36:59;98452.97;;;39.44;18.83
13241;BME280;6687;47.790;7.322;2023-07-20T16:39:28;98452.78;;;39.73;17.77
13241;BME280;6687;47.790;7.322;2023-07-20T16:41:56;98463.13;;;38.98;18.73
13241;BME280;6687;47.790;7.322;2023-07-20T16:44:22;98451.44;;;39.19;18.72
13241;BME280;6687;47.790;7.322;2023-07-20T16:46:51;98452.28;;;38.17;18.63
13241;BME280;6687;47.790;7.322;2023-07-20T16:49:17;98457.03;;;38.96;19.17
13241;BME280;6687;47.790;7.322;2023-07-20T16:51:44;98455.25;;;39.25;18.38
13241;BME280;6687;47.790;7.322;2023-07-20T16:54:11;98454.19;;;37.56;19.33
13241;BME280;6687;47.790;7.322;2023-07-20T16:56:37;98458.53;;;37.42;19.48
13241;BME280;6687;47.790;7.322;2023-07-20T16:59:05;98454.03;;;37.80;19.70
13241;BME280;6687;47.790;7.322;2023-07-20T17:01:32;98465.59;;;38.78;19.30
13241;BME280;6687;47.790;7.322;2023-07-20T17:04:01;98455.81;;;37.27;19.95
13241;BME280;6687;47.790;7.322;2023-07-20T17:06:28;98454.72;;;38.12;19.64
13241;BME280;6687;47.790;7.322;2023-07-20T17:08:54;98457.44;;;37.74;19.17
13241;BME280;6687;47.790;7.322;2023-07-20T17:11:25;98454.97;;;37.27;19.94
13241;BME280;6687;47.790;7.322;2023-07-20T17:13:52;98456.59;;;38.27;19.87
13241;BME280;6687;47.790;7.322;2023-07-20T17:16:18;98461.03;;;38.49;19.45
13241;BME280;6687;47.790;7.322;2023-07-20T17:18:45;98449.41;;;37.66;19.88
13241;BME280;6687;47.790;7.322;2023-07-20T17:21:13;98449.41;;;37.66;19.88
13241;BME280;6687;47.790;7.322;2023-07-20T17:23:40;98453.38;;;35.58;21.72
13241;BME280;6687;47.790;7.322;2023-07-20T17:26:07;98453.59;;;36.99;20.88
13241;BME280;6687;47.790;7.322;2023-07-20T17:28:36;98463.13;;;35.18;22.27
13241;BME280;6687;47.790;7.322;2023-07-20T17:31:04;98463.13;;;35.18;22.27
13241;BME280;6687;47.790;7.322;2023-07-20T17:33:31;98462.50;;;36.85;20.51
13241;BME280;6687;47.790;7.322;2023-07-20T17:35:57;98448.44;;;36.90;20.14
13241;BME280;6687;47.790;7.322;2023-07-20T17:38:26;98453.09;;;36.25;20.91
13241;BME280;6687;47.790;7.322;2023-07-20T17:40:53;98461.22;;;36.09;20.86
13241;BME280;6687;47.790;7.322;2023-07-20T17:43:20;98457.34;;;35.13;22.55
13241;BME280;6687;47.790;7.322;2023-07-20T17:45:48;98456.31;;;36.12;21.39
13241;BME280;6687;47.790;7.322;2023-07-20T17:48:16;98449.94;;;34.90;22.31
13241;BME280;6687;47.790;7.322;2023-07-20T17:50:44;98460.78;;;35.56;22.18
13241;BME280;6687;47.790;7.322;2023-07-20T17:53:10;98456.72;;;35.35;22.37
13241;BME280;6687;47.790;7.322;2023-07-20T17:55:39;98458.06;;;35.64;22.54
13241;BME280;6687;47.790;7.322;2023-07-20T17:58:06;98463.81;;;35.53;22.09
13241;BME280;6687;47.790;7.322;2023-07-20T18:00:33;98459.09;;;35.55;22.82
13241;BME280;6687;47.790;7.322;2023-07-20T18:02:59;98470.31;;;35.09;23.17
13241;BME280;6687;47.790;7.322;2023-07-20T18:05:26;98465.72;;;34.77;23.15
13241;BME280;6687;47.790;7.322;2023-07-20T18:07:53;98467.34;;;34.70;23.26
13241;BME280;6687;47.790;7.322;2023-07-20T18:10:19;98462.59;;;33.95;23.42
13241;BME280;6687;47.790;7.322;2023-07-20T18:12:49;98465.56;;;33.47;24.73
13241;BME280;6687;47.790;7.322;2023-07-20T18:15:16;98466.75;;;33.27;25.07
13241;BME280;6687;47.790;7.322;2023-07-20T18:17:43;98466.78;;;32.44;25.63
13241;BME280;6687;47.790;7.322;2023-07-20T18:20:10;98465.94;;;32.16;26.06
13241;BME280;6687;47.790;7.322;2023-07-20T18:22:37;98470.44;;;32.98;25.54
13241;BME280;6687;47.790;7.322;2023-07-20T18:25:04;98466.53;;;32.93;25.22
13241;BME280;6687;47.790;7.322;2023-07-20T18:27:31;98464.53;;;32.12;26.73
13241;BME280;6687;47.790;7.322;2023-07-20T18:29:59;98465.19;;;31.57;26.85
13241;BME280;6687;47.790;7.322;2023-07-20T18:32:26;98460.44;;;32.17;26.31
13241;BME280;6687;47.790;7.322;2023-07-20T18:34:53;98466.59;;;31.51;27.35
13241;BME280;6687;47.790;7.322;2023-07-20T18:37:19;98467.34;;;30.73;28.18